createdAt,value
2022-11-29T00:01:56.710Z,29.55
2022-11-29T00:07:17.132Z,36.15
2022-11-29T00:12:37.793Z,33.58
2022-11-29T00:17:58.190Z,33.58
2022-11-29T00:23:19.014Z,36.33
2022-11-29T00:28:39.612Z,34.05
2022-11-29T00:34:02.895Z,31.85
2022-11-29T00:39:23.368Z,33.28
2022-11-29T00:44:44.339Z,38.47
2022-11-29T00:50:06.704Z,29.90
2022-11-29T00:55:27.115Z,35.25
2022-11-29T01:00:47.813Z,37.08
2022-11-29T01:06:12.074Z,37.58
2022-11-29T01:11:33.136Z,36.28
2022-11-29T01:16:53.574Z,35.33
2022-11-29T01:22:14.120Z,40.50
2022-11-29T01:27:35.047Z,41.13
2022-11-29T01:32:55.383Z,36.70
2022-11-29T01:38:16.217Z,30.08
2022-11-29T01:44:00.107Z,34.25
2022-11-29T01:49:26.277Z,34.13
2022-11-29T01:54:49.736Z,37.55
2022-11-29T02:00:14.610Z,41.30
2022-11-29T02:05:38.951Z,33.90
2022-11-29T02:11:16.537Z,35.95
2022-11-29T02:17:10.862Z,36.88
2022-11-29T02:22:49.504Z,32.15
2022-11-29T02:28:30.090Z,42.33
2022-11-29T02:34:35.354Z,40.35
2022-11-29T02:46:08.688Z,37.35
2022-11-29T02:51:56.872Z,31.40
2022-11-29T02:57:29.411Z,35.40
2022-11-29T03:03:15.388Z,40.75
2022-11-29T03:14:24.440Z,38.58
2022-11-29T03:20:06.412Z,37.65
2022-11-29T03:25:37.351Z,36.67
2022-11-29T03:31:16.126Z,46.03
2022-11-29T03:37:03.697Z,43.13
2022-11-29T03:42:32.734Z,39.83
2022-11-29T03:48:01.729Z,34.60
2022-11-29T03:53:34.634Z,38.95
2022-11-29T03:59:03.251Z,41.08
2022-11-29T04:04:57.597Z,40.20
2022-11-29T04:10:49.221Z,40.83
2022-11-29T04:16:29.004Z,42.78
2022-11-29T04:21:53.531Z,40.45
2022-11-29T04:27:40.314Z,41.40
2022-11-29T04:33:35.335Z,49.47
2022-11-29T04:39:04.874Z,43.83
2022-11-29T04:44:45.212Z,43.38
2022-11-29T04:50:20.191Z,45.17
2022-11-29T04:56:08.460Z,47.25
2022-11-29T05:01:50.832Z,47.60
2022-11-29T05:07:25.269Z,40.97
2022-11-29T05:13:00.697Z,43.77
2022-11-29T05:18:30.309Z,53.10
2022-11-29T05:23:58.750Z,52.10
2022-11-29T05:29:34.149Z,49.38
2022-11-29T05:35:25.826Z,51.05
2022-11-29T05:41:09.718Z,42.70
2022-11-29T05:46:54.285Z,57.63
2022-11-29T05:52:24.492Z,47.85
2022-11-29T05:57:57.007Z,45.75
2022-11-29T06:03:39.553Z,46.78
2022-11-29T06:09:14.054Z,45.78
2022-11-29T06:14:57.029Z,34.27
2022-11-29T06:20:23.515Z,46.67
2022-11-29T06:26:29.290Z,43.25
2022-11-29T06:32:16.434Z,49.50
2022-11-29T06:37:50.547Z,38.67
2022-11-29T06:43:11.614Z,44.73
2022-11-29T06:48:45.061Z,46.72
2022-11-29T06:54:27.326Z,45.90
2022-11-29T07:00:17.289Z,50.65
2022-11-29T07:05:38.418Z,48.38
2022-11-29T07:11:00.410Z,54.20
2022-11-29T07:16:27.087Z,51.75
2022-11-29T07:22:26.529Z,55.22
2022-11-29T07:28:01.516Z,47.10
2022-11-29T07:33:41.934Z,51.70
2022-11-29T07:39:33.063Z,54.13
2022-11-29T07:44:59.704Z,49.67
2022-11-29T07:50:20.999Z,54.50
2022-11-29T07:55:41.800Z,47.78
2022-11-29T08:01:03.510Z,47.45
2022-11-29T08:06:26.876Z,48.15
2022-11-29T08:11:48.789Z,46.78
2022-11-29T08:17:09.272Z,49.17
2022-11-29T08:22:30.364Z,48.03
2022-11-29T08:27:51.667Z,54.53
2022-11-29T08:33:12.308Z,51.05
2022-11-29T08:38:32.772Z,55.25
2022-11-29T08:43:53.523Z,54.55
2022-11-29T08:49:14.375Z,62.13
2022-11-29T08:54:34.752Z,58.92
2022-11-29T08:59:55.572Z,54.03
2022-11-29T09:05:16.135Z,57.03
2022-11-29T09:10:38.673Z,62.00
2022-11-29T09:15:59.339Z,51.00
2022-11-29T09:21:19.975Z,46.95
2022-11-29T09:26:42.120Z,52.40
2022-11-29T09:32:03.015Z,55.20
2022-11-29T09:37:23.714Z,57.85
2022-11-29T09:42:54.955Z,47.25
2022-11-29T09:48:34.135Z,42.70
2022-11-29T09:54:26.105Z,48.10
2022-11-29T09:59:51.293Z,47.97
2022-11-29T10:05:23.779Z,45.35
2022-11-29T10:10:47.589Z,45.00
2022-11-29T10:16:19.520Z,38.75
2022-11-29T10:21:43.675Z,38.92
2022-11-29T10:27:21.131Z,47.50
2022-11-29T10:32:45.279Z,41.35
2022-11-29T10:38:29.645Z,43.70
2022-11-29T10:43:48.056Z,47.15
2022-11-29T10:49:28.727Z,46.67
2022-11-29T10:54:53.778Z,44.10
2022-11-29T11:00:15.225Z,39.22
2022-11-29T11:05:36.047Z,43.88
2022-11-29T11:11:01.744Z,41.55
2022-11-29T11:16:25.715Z,46.08
2022-11-29T11:21:46.002Z,42.25
2022-11-29T11:27:06.466Z,47.15
2022-11-29T11:32:27.212Z,42.20
2022-11-29T11:37:57.546Z,44.17
2022-11-29T11:43:21.741Z,40.85
2022-11-29T11:48:42.698Z,37.83
2022-11-29T11:54:03.527Z,35.45
2022-11-29T11:59:26.729Z,41.60
2022-11-29T12:04:48.087Z,44.13
2022-11-29T12:10:19.028Z,40.35
2022-11-29T12:15:42.717Z,49.17
2022-11-29T12:21:13.181Z,42.53
2022-11-29T12:26:58.561Z,47.70
2022-11-29T12:32:42.994Z,38.28
2022-11-29T12:38:21.329Z,41.63
2022-11-29T12:43:51.134Z,45.10
2022-11-29T12:49:44.741Z,38.70
2022-11-29T12:55:50.304Z,41.88
2022-11-29T13:01:37.665Z,45.23
2022-11-29T13:07:29.648Z,42.20
2022-11-29T13:13:03.058Z,46.45
2022-11-29T13:18:44.224Z,49.75
2022-11-29T13:24:19.180Z,45.83
2022-11-29T13:29:40.421Z,50.28
2022-11-29T13:35:18.024Z,47.85
2022-11-29T13:40:45.205Z,49.55
2022-11-29T13:46:23.939Z,48.35
2022-11-29T13:51:45.876Z,51.53
2022-11-29T13:57:09.232Z,54.08
2022-11-29T14:02:31.712Z,54.20
2022-11-29T14:08:23.280Z,53.42
2022-11-29T14:13:49.340Z,54.17
2022-11-29T14:19:10.067Z,50.42
2022-11-29T14:24:35.311Z,57.70
2022-11-29T14:29:56.067Z,52.88
2022-11-29T14:35:43.605Z,51.88
2022-11-29T14:41:19.011Z,52.28
2022-11-29T14:46:39.598Z,69.63
2022-11-29T14:52:19.017Z,57.35
2022-11-29T14:57:58.523Z,59.05
2022-11-29T15:03:37.505Z,50.13
2022-11-29T15:09:05.776Z,56.08
2022-11-29T15:14:46.287Z,73.47
2022-11-29T15:20:22.420Z,60.40
2022-11-29T15:25:48.481Z,63.20
2022-11-29T15:31:13.112Z,57.20
2022-11-29T15:36:34.592Z,56.13
2022-11-29T15:42:10.498Z,56.30
2022-11-29T15:47:31.520Z,58.00
2022-11-29T15:52:59.840Z,44.47
2022-11-29T15:58:21.419Z,52.53
2022-11-29T16:03:45.471Z,63.58
2022-11-29T16:09:12.384Z,48.03
2022-11-29T16:14:33.104Z,52.08
2022-11-29T16:20:25.051Z,49.25
2022-11-29T16:26:21.455Z,49.33
2022-11-29T16:31:42.468Z,58.17
2022-11-29T16:37:06.564Z,58.30
2022-11-29T16:42:33.425Z,58.67
2022-11-29T16:47:58.789Z,57.72
2022-11-29T16:53:37.647Z,51.40
2022-11-29T16:59:26.234Z,48.40
2022-11-29T17:04:44.025Z,52.58
2022-11-29T17:10:07.744Z,44.97
2022-11-29T17:15:28.502Z,50.85
2022-11-29T17:20:49.043Z,50.53
2022-11-29T17:26:09.709Z,51.15
2022-11-29T17:31:31.448Z,52.65
2022-11-29T17:36:51.842Z,47.75
2022-11-29T17:42:12.379Z,47.80
2022-11-29T17:47:33.462Z,57.67
2022-11-29T17:52:53.735Z,52.35
2022-11-29T17:58:14.459Z,55.65
2022-11-29T18:03:40.108Z,48.88
2022-11-29T18:09:02.071Z,57.63
2022-11-29T18:14:23.790Z,44.22
2022-11-29T18:19:44.973Z,50.28
2022-11-29T18:25:36.960Z,54.65
2022-11-29T18:30:47.411Z,54.30
2022-11-29T18:36:11.121Z,53.10
2022-11-29T18:41:32.607Z,57.33
2022-11-29T18:46:53.330Z,50.83
2022-11-29T18:52:15.001Z,52.30
2022-11-29T18:57:35.685Z,53.55
2022-11-29T19:02:56.373Z,50.65
2022-11-29T19:08:17.103Z,47.83
2022-11-29T19:13:38.458Z,50.03
2022-11-29T19:19:00.377Z,47.47
2022-11-29T19:24:21.532Z,57.10
2022-11-29T19:29:42.255Z,45.55
2022-11-29T19:35:03.320Z,50.95
2022-11-29T19:40:23.950Z,47.42
2022-11-29T19:45:44.529Z,48.60
2022-11-29T19:51:07.221Z,50.58
2022-11-29T19:56:29.547Z,46.92
2022-11-29T20:01:50.670Z,39.90
2022-11-29T20:07:11.191Z,42.55
2022-11-29T20:12:32.855Z,44.22
2022-11-29T20:17:53.596Z,51.05
2022-11-29T20:23:14.470Z,47.67
2022-11-29T20:28:35.862Z,51.63
2022-11-29T20:33:57.502Z,49.60
2022-11-29T20:39:48.958Z,47.30
2022-11-29T20:45:12.111Z,50.97
2022-11-29T20:50:33.039Z,55.40
2022-11-29T20:55:53.698Z,57.85
2022-11-29T21:01:14.437Z,50.38
2022-11-29T21:06:39.140Z,55.72
2022-11-29T21:11:59.835Z,48.65
2022-11-29T21:17:20.526Z,52.30
2022-11-29T21:22:46.890Z,46.08
2022-11-29T21:28:13.321Z,52.75
2022-11-29T21:33:34.272Z,47.47
2022-11-29T21:38:55.387Z,56.10
2022-11-29T21:44:16.356Z,53.97
2022-11-29T21:49:36.756Z,57.40
2022-11-29T21:54:57.118Z,54.90
2022-11-29T22:00:19.452Z,53.38
2022-11-29T22:05:40.728Z,58.90
2022-11-29T22:11:09.891Z,53.88
2022-11-29T22:16:30.655Z,58.90
2022-11-29T22:21:53.669Z,50.97
2022-11-29T22:27:14.053Z,50.05
2022-11-29T22:32:34.725Z,48.72
2022-11-29T22:37:55.971Z,58.00
2022-11-29T22:43:16.495Z,51.42
2022-11-29T22:48:39.113Z,44.42
2022-11-29T22:54:01.751Z,47.92
2022-11-29T22:59:22.246Z,44.58
2022-11-29T23:04:42.805Z,45.05
2022-11-29T23:10:03.752Z,44.60
2022-11-29T23:15:24.110Z,45.95
2022-11-29T23:20:44.791Z,40.88
2022-11-29T23:26:08.331Z,43.80
2022-11-29T23:31:29.593Z,43.23
2022-11-29T23:36:53.161Z,39.60
2022-11-29T23:42:14.046Z,45.33
2022-11-29T23:47:34.811Z,40.53
2022-11-29T23:52:56.489Z,38.13
2022-11-29T23:58:16.806Z,32.78
